Hauptseite
METAR-TAF:

METAR-TAF

Flughäfen :

MoD Boscombe Down

Boscombe Down, England

Breite: 51-10N, Länge: 001-45W, Höhe: 124 m

Beobachtung

Neuester Wetterbericht von vor 27 Minuten, um 12:50 UTC
Wind 4 kt aus Nord/Nordwest
Temperatur 23°C
Luftfeuchtigkeit 47%
Luftdruck 1034 hPa
Sichtweite 10 km oder mehr
Leicht bewölkt in der Höhe von 4500 ft
Aufgelockert bewölkt in der Höhe von 5000 ft

METAR: EGDM 271250Z 34004KT 9999 FEW045 SCT050 23/11 Q1034 NOSIG RMK BLU BLU

Zeit: 14:17 (13:17 UTC)

Prognose

Neuester Wetterbericht von vor 3 Stunden und 0 Minuten, um 10:17 UTC
Gültige Prognose vom 27 um 12 UTC bis 27 um 16 UTC
Wind 5 kt aus Nordost
Sichtweite 10 km oder mehr
Aufgelockert bewölkt in der Höhe von 4000 ft

TAF: EGDM 271017Z 2712/2716 04005KT 9999 SCT040

Wetterbeobachtungen und Prognosen von mehr als 4000 Flughäfen (METAR und TAF Bericht).

Die verfügbaren Stationen werden durch gelbe und rote Markierungen auf der Karte dargestellt.

Führen Sie die Maus auf sie, um den Namen der Station zu sehen.

Darauf klicken, um die Beobachtung von Wetterbeobachtungen und Prognosen zu sehen.

Um die Karte zu ändern : klicken Sie auf den grünen Tasten mit einem schwarzen Kreuz Zum Vergrößern, auf den grünen Button mit einem Gedankenstrich zu verkleinern, oder auf die grünen Pfeile für benachbarte Karten.


METAR-TAF: